sensor_id;sensor_type;location;lat;lon;timestamp;pressure;altitude;pressure_sealevel;temperature;humidity
34712;BME280;20941;42.408;25.634;2023-02-02T00:00:36;99547.06;;;0.04;91.35
34712;BME280;20941;42.408;25.634;2023-02-02T00:03:02;99546.34;;;-0.03;91.40
34712;BME280;20941;42.408;25.634;2023-02-02T00:05:27;99556.94;;;0.00;92.14
34712;BME280;20941;42.408;25.634;2023-02-02T00:07:53;99573.97;;;0.21;91.06
34712;BME280;20941;42.408;25.634;2023-02-02T00:10:18;99578.06;;;0.30;90.55
34712;BME280;20941;42.408;25.634;2023-02-02T00:12:44;99567.00;;;0.30;90.39
34712;BME280;20941;42.408;25.634;2023-02-02T00:15:09;99553.28;;;0.23;90.57
34712;BME280;20941;42.408;25.634;2023-02-02T00:17:35;99555.31;;;0.28;90.94
34712;BME280;20941;42.408;25.634;2023-02-02T00:20:00;99557.97;;;0.35;90.70
34712;BME280;20941;42.408;25.634;2023-02-02T00:22:26;99575.25;;;0.54;90.29
34712;BME280;20941;42.408;25.634;2023-02-02T00:24:52;99586.03;;;0.67;89.75
34712;BME280;20941;42.408;25.634;2023-02-02T00:27:17;99571.22;;;0.73;89.62
34712;BME280;20941;42.408;25.634;2023-02-02T00:29:43;99569.53;;;0.72;90.11
34712;BME280;20941;42.408;25.634;2023-02-02T00:32:09;99556.47;;;0.56;90.24
34712;BME280;20941;42.408;25.634;2023-02-02T00:34:35;99576.41;;;0.70;90.28
34712;BME280;20941;42.408;25.634;2023-02-02T00:37:00;99508.66;;;0.31;89.88
34712;BME280;20941;42.408;25.634;2023-02-02T00:39:26;99545.66;;;0.54;90.31
34712;BME280;20941;42.408;25.634;2023-02-02T00:41:52;99560.03;;;0.68;90.30
34712;BME280;20941;42.408;25.634;2023-02-02T00:44:18;99543.09;;;0.53;90.88
34712;BME280;20941;42.408;25.634;2023-02-02T00:47:02;99550.72;;;0.45;90.52
34712;BME280;20941;42.408;25.634;2023-02-02T00:49:28;99567.28;;;0.57;90.84
34712;BME280;20941;42.408;25.634;2023-02-02T00:51:54;99568.97;;;0.58;90.92
34712;BME280;20941;42.408;25.634;2023-02-02T00:54:20;99577.25;;;0.70;91.31
34712;BME280;20941;42.408;25.634;2023-02-02T00:56:46;99572.06;;;0.74;90.58
34712;BME280;20941;42.408;25.634;2023-02-02T00:59:11;99570.50;;;0.66;90.05
34712;BME280;20941;42.408;25.634;2023-02-02T01:01:37;99556.56;;;0.61;91.41
34712;BME280;20941;42.408;25.634;2023-02-02T01:04:02;99543.34;;;0.63;90.61
34712;BME280;20941;42.408;25.634;2023-02-02T01:06:28;99568.66;;;0.84;90.21
34712;BME280;20941;42.408;25.634;2023-02-02T01:08:53;99548.88;;;0.63;90.23
34712;BME280;20941;42.408;25.634;2023-02-02T01:11:20;99558.59;;;0.66;89.31
34712;BME280;20941;42.408;25.634;2023-02-02T01:13:45;99555.22;;;0.75;89.69
34712;BME280;20941;42.408;25.634;2023-02-02T01:16:11;99545.25;;;0.62;89.21
34712;BME280;20941;42.408;25.634;2023-02-02T01:18:37;99577.81;;;0.84;88.73
34712;BME280;20941;42.408;25.634;2023-02-02T01:21:06;99582.00;;;0.87;88.47
34712;BME280;20941;42.408;25.634;2023-02-02T01:23:32;99588.88;;;0.84;87.99
34712;BME280;20941;42.408;25.634;2023-02-02T01:26:01;99590.41;;;0.92;87.42
34712;BME280;20941;42.408;25.634;2023-02-02T01:28:27;99566.38;;;0.80;87.22
34712;BME280;20941;42.408;25.634;2023-02-02T01:30:53;99569.25;;;0.86;86.44
34712;BME280;20941;42.408;25.634;2023-02-02T01:33:19;99588.13;;;1.01;86.72
34712;BME280;20941;42.408;25.634;2023-02-02T01:35:53;99569.94;;;0.93;86.09
34712;BME280;20941;42.408;25.634;2023-02-02T01:38:19;99557.19;;;0.92;86.18
34712;BME280;20941;42.408;25.634;2023-02-02T01:40:51;99568.13;;;0.99;86.92
34712;BME280;20941;42.408;25.634;2023-02-02T01:43:47;99562.72;;;0.92;86.62
34712;BME280;20941;42.408;25.634;2023-02-02T01:48:41;99555.09;;;0.70;88.21
34712;BME280;20941;42.408;25.634;2023-02-02T01:51:11;99551.63;;;0.63;87.93
34712;BME280;20941;42.408;25.634;2023-02-02T01:53:37;99547.66;;;0.59;87.96
34712;BME280;20941;42.408;25.634;2023-02-02T01:56:05;99546.34;;;0.61;88.87
34712;BME280;20941;42.408;25.634;2023-02-02T01:58:34;99558.25;;;0.62;89.69
34712;BME280;20941;42.408;25.634;2023-02-02T02:01:00;99564.97;;;0.66;89.79
34712;BME280;20941;42.408;25.634;2023-02-02T02:03:28;99559.44;;;0.66;88.50
34712;BME280;20941;42.408;25.634;2023-02-02T02:06:02;99548.88;;;0.63;87.77
34712;BME280;20941;42.408;25.634;2023-02-02T02:08:35;99542.81;;;0.66;86.71
34712;BME280;20941;42.408;25.634;2023-02-02T02:11:01;99535.72;;;0.70;86.70
34712;BME280;20941;42.408;25.634;2023-02-02T02:13:28;99560.84;;;0.80;86.37
34712;BME280;20941;42.408;25.634;2023-02-02T02:19:26;99547.09;;;0.86;85.65
34712;BME280;20941;42.408;25.634;2023-02-02T02:22:12;99545.91;;;0.82;85.62
34712;BME280;20941;42.408;25.634;2023-02-02T02:25:09;99546.53;;;0.84;86.05
34712;BME280;20941;42.408;25.634;2023-02-02T02:30:59;99539.69;;;0.74;86.64
34712;BME280;20941;42.408;25.634;2023-02-02T02:36:20;99535.84;;;0.63;86.07
34712;BME280;20941;42.408;25.634;2023-02-02T02:39:03;99544.81;;;0.83;86.56
34712;BME280;20941;42.408;25.634;2023-02-02T02:41:38;99553.84;;;0.90;85.80
34712;BME280;20941;42.408;25.634;2023-02-02T02:44:07;99554.00;;;1.00;85.43
34712;BME280;20941;42.408;25.634;2023-02-02T02:46:34;99536.81;;;0.98;84.78
34712;BME280;20941;42.408;25.634;2023-02-02T02:49:01;99545.78;;;1.05;86.63
34712;BME280;20941;42.408;25.634;2023-02-02T02:54:18;99552.44;;;1.04;86.52
34712;BME280;20941;42.408;25.634;2023-02-02T03:02:32;99549.34;;;1.18;87.52
34712;BME280;20941;42.408;25.634;2023-02-02T03:05:39;99559.59;;;1.17;87.88
34712;BME280;20941;42.408;25.634;2023-02-02T03:08:22;99539.25;;;1.11;87.61
34712;BME280;20941;42.408;25.634;2023-02-02T03:10:49;99539.91;;;1.02;88.11
34712;BME280;20941;42.408;25.634;2023-02-02T03:13:15;99551.34;;;1.05;88.18
34712;BME280;20941;42.408;25.634;2023-02-02T03:15:42;99551.25;;;1.00;89.39
34712;BME280;20941;42.408;25.634;2023-02-02T03:18:09;99556.53;;;1.02;89.18
34712;BME280;20941;42.408;25.634;2023-02-02T03:20:35;99560.50;;;1.06;89.42
34712;BME280;20941;42.408;25.634;2023-02-02T03:23:01;99551.50;;;0.99;89.66
34712;BME280;20941;42.408;25.634;2023-02-02T03:25:26;99547.31;;;0.96;90.65
34712;BME280;20941;42.408;25.634;2023-02-02T03:27:52;99553.63;;;1.08;90.20
34712;BME280;20941;42.408;25.634;2023-02-02T03:30:18;99554.63;;;1.02;89.73
34712;BME280;20941;42.408;25.634;2023-02-02T03:32:44;99561.69;;;1.10;90.83
34712;BME280;20941;42.408;25.634;2023-02-02T03:35:10;99528.66;;;0.91;91.03
34712;BME280;20941;42.408;25.634;2023-02-02T03:37:36;99554.06;;;1.17;90.48
34712;BME280;20941;42.408;25.634;2023-02-02T03:40:02;99552.63;;;1.15;91.17
34712;BME280;20941;42.408;25.634;2023-02-02T03:42:27;99546.09;;;1.21;91.19
34712;BME280;20941;42.408;25.634;2023-02-02T03:44:53;99536.44;;;1.23;90.83
34712;BME280;20941;42.408;25.634;2023-02-02T03:47:18;99514.75;;;1.03;91.66
34712;BME280;20941;42.408;25.634;2023-02-02T03:49:44;99542.97;;;1.17;92.18
34712;BME280;20941;42.408;25.634;2023-02-02T03:52:09;99556.09;;;1.22;92.20
34712;BME280;20941;42.408;25.634;2023-02-02T03:54:35;99556.19;;;1.27;92.94
34712;BME280;20941;42.408;25.634;2023-02-02T03:57:00;99565.09;;;1.29;92.41
34712;BME280;20941;42.408;25.634;2023-02-02T03:59:26;99552.91;;;1.30;92.68
34712;BME280;20941;42.408;25.634;2023-02-02T04:01:51;99555.50;;;1.20;93.01
34712;BME280;20941;42.408;25.634;2023-02-02T04:04:17;99535.41;;;1.12;94.06
34712;BME280;20941;42.408;25.634;2023-02-02T04:06:42;99555.72;;;1.01;93.85
34712;BME280;20941;42.408;25.634;2023-02-02T04:09:08;99547.13;;;1.03;96.15
34712;BME280;20941;42.408;25.634;2023-02-02T04:11:33;99514.56;;;0.93;96.09
34712;BME280;20941;42.408;25.634;2023-02-02T04:13:59;99545.28;;;0.91;96.21
34712;BME280;20941;42.408;25.634;2023-02-02T04:16:24;99532.84;;;0.94;97.06
34712;BME280;20941;42.408;25.634;2023-02-02T04:18:50;99543.16;;;1.10;96.69
34712;BME280;20941;42.408;25.634;2023-02-02T04:21:15;99542.63;;;1.14;96.30
34712;BME280;20941;42.408;25.634;2023-02-02T04:23:41;99558.78;;;1.17;96.96
34712;BME280;20941;42.408;25.634;2023-02-02T04:26:07;99570.28;;;1.25;96.59
34712;BME280;20941;42.408;25.634;2023-02-02T04:28:32;99559.34;;;1.19;96.30
34712;BME280;20941;42.408;25.634;2023-02-02T04:30:58;99552.72;;;1.20;96.59
34712;BME280;20941;42.408;25.634;2023-02-02T04:33:25;99522.28;;;0.91;97.48
34712;BME280;20941;42.408;25.634;2023-02-02T04:35:51;99544.16;;;1.04;97.55
34712;BME280;20941;42.408;25.634;2023-02-02T04:38:17;99541.75;;;0.96;98.57
34712;BME280;20941;42.408;25.634;2023-02-02T04:40:44;99523.38;;;0.90;98.72
34712;BME280;20941;42.408;25.634;2023-02-02T04:43:10;99552.34;;;0.99;99.94
34712;BME280;20941;42.408;25.634;2023-02-02T04:45:36;99547.78;;;0.93;100.00
34712;BME280;20941;42.408;25.634;2023-02-02T04:48:02;99563.41;;;0.99;100.00
34712;BME280;20941;42.408;25.634;2023-02-02T04:50:29;99549.16;;;1.07;100.00
34712;BME280;20941;42.408;25.634;2023-02-02T04:52:54;99542.47;;;1.03;99.33
34712;BME280;20941;42.408;25.634;2023-02-02T04:55:20;99565.06;;;1.12;99.93
34712;BME280;20941;42.408;25.634;2023-02-02T04:57:46;99555.22;;;1.04;100.00
34712;BME280;20941;42.408;25.634;2023-02-02T05:00:12;99562.94;;;1.02;100.00
34712;BME280;20941;42.408;25.634;2023-02-02T05:02:38;99581.25;;;1.03;100.00
34712;BME280;20941;42.408;25.634;2023-02-02T05:05:05;99577.88;;;1.01;100.00
34712;BME280;20941;42.408;25.634;2023-02-02T05:07:31;99578.47;;;1.03;99.79
34712;BME280;20941;42.408;25.634;2023-02-02T05:09:57;99568.84;;;0.94;100.00
34712;BME280;20941;42.408;25.634;2023-02-02T05:12:22;99583.41;;;1.01;100.00
34712;BME280;20941;42.408;25.634;2023-02-02T05:14:48;99556.69;;;0.95;100.00
34712;BME280;20941;42.408;25.634;2023-02-02T05:17:13;99562.25;;;0.95;100.00
34712;BME280;20941;42.408;25.634;2023-02-02T05:19:40;99586.25;;;1.06;100.00
34712;BME280;20941;42.408;25.634;2023-02-02T05:22:05;99582.84;;;1.16;100.00
34712;BME280;20941;42.408;25.634;2023-02-02T05:24:31;99583.44;;;1.18;99.09
34712;BME280;20941;42.408;25.634;2023-02-02T05:26:56;99568.84;;;1.23;99.66
34712;BME280;20941;42.408;25.634;2023-02-02T05:29:28;99543.72;;;1.12;99.18
34712;BME280;20941;42.408;25.634;2023-02-02T05:31:55;99574.56;;;1.33;98.62
34712;BME280;20941;42.408;25.634;2023-02-02T05:34:21;99572.97;;;1.37;97.26
34712;BME280;20941;42.408;25.634;2023-02-02T05:36:47;99580.81;;;1.40;97.59
34712;BME280;20941;42.408;25.634;2023-02-02T05:39:13;99583.66;;;1.46;97.63
34712;BME280;20941;42.408;25.634;2023-02-02T05:41:39;99595.34;;;1.48;97.28
34712;BME280;20941;42.408;25.634;2023-02-02T05:44:04;99596.44;;;1.47;96.41
34712;BME280;20941;42.408;25.634;2023-02-02T05:46:30;99589.88;;;1.53;95.93
34712;BME280;20941;42.408;25.634;2023-02-02T05:48:55;99585.69;;;1.50;94.83
34712;BME280;20941;42.408;25.634;2023-02-02T05:51:28;99584.66;;;1.39;94.28
34712;BME280;20941;42.408;25.634;2023-02-02T05:53:55;99600.19;;;1.40;93.97
34712;BME280;20941;42.408;25.634;2023-02-02T05:56:21;99575.56;;;1.27;94.01
34712;BME280;20941;42.408;25.634;2023-02-02T05:58:46;99562.97;;;1.19;94.75
34712;BME280;20941;42.408;25.634;2023-02-02T06:01:15;99580.41;;;1.20;94.43
34712;BME280;20941;42.408;25.634;2023-02-02T06:03:41;99575.06;;;1.13;94.79
34712;BME280;20941;42.408;25.634;2023-02-02T06:06:07;99585.38;;;1.18;94.97
34712;BME280;20941;42.408;25.634;2023-02-02T06:08:33;99598.25;;;1.24;96.04
34712;BME280;20941;42.408;25.634;2023-02-02T06:10:59;99536.00;;;0.86;95.49
34712;BME280;20941;42.408;25.634;2023-02-02T06:13:24;99583.44;;;1.18;96.09
34712;BME280;20941;42.408;25.634;2023-02-02T06:15:49;99585.47;;;1.23;95.96
34712;BME280;20941;42.408;25.634;2023-02-02T06:18:15;99584.81;;;1.33;96.53
34712;BME280;20941;42.408;25.634;2023-02-02T06:20:41;99594.59;;;1.52;96.10
34712;BME280;20941;42.408;25.634;2023-02-02T06:23:06;99594.09;;;1.72;94.55
34712;BME280;20941;42.408;25.634;2023-02-02T06:25:32;99589.50;;;1.78;94.55
34712;BME280;20941;42.408;25.634;2023-02-02T06:27:59;99595.03;;;1.95;92.81
34712;BME280;20941;42.408;25.634;2023-02-02T06:30:26;99608.88;;;2.12;92.44
34712;BME280;20941;42.408;25.634;2023-02-02T06:32:52;99600.47;;;2.24;90.13
34712;BME280;20941;42.408;25.634;2023-02-02T06:35:18;99601.84;;;2.44;88.13
34712;BME280;20941;42.408;25.634;2023-02-02T06:37:44;99607.63;;;2.59;86.55
34712;BME280;20941;42.408;25.634;2023-02-02T06:40:10;99596.78;;;2.80;84.82
34712;BME280;20941;42.408;25.634;2023-02-02T06:42:36;99590.31;;;2.96;83.01
34712;BME280;20941;42.408;25.634;2023-02-02T06:45:03;99575.97;;;3.04;82.28
34712;BME280;20941;42.408;25.634;2023-02-02T06:47:31;99591.69;;;3.21;82.01
34712;BME280;20941;42.408;25.634;2023-02-02T06:49:57;99596.34;;;3.37;81.63
34712;BME280;20941;42.408;25.634;2023-02-02T06:52:22;99571.25;;;3.32;81.37
34712;BME280;20941;42.408;25.634;2023-02-02T06:54:48;99600.66;;;3.56;81.44
34712;BME280;20941;42.408;25.634;2023-02-02T06:57:14;99590.69;;;3.60;81.22
34712;BME280;20941;42.408;25.634;2023-02-02T06:59:40;99597.75;;;3.73;80.98
34712;BME280;20941;42.408;25.634;2023-02-02T07:02:10;99598.47;;;3.90;81.32
34712;BME280;20941;42.408;25.634;2023-02-02T07:04:35;99594.38;;;4.03;82.01
34712;BME280;20941;42.408;25.634;2023-02-02T07:07:01;99572.16;;;4.08;79.44
34712;BME280;20941;42.408;25.634;2023-02-02T07:09:27;99573.38;;;4.23;79.50
34712;BME280;20941;42.408;25.634;2023-02-02T07:11:52;99572.69;;;4.43;78.54
34712;BME280;20941;42.408;25.634;2023-02-02T07:14:18;99567.16;;;4.53;75.31
34712;BME280;20941;42.408;25.634;2023-02-02T07:16:43;99573.34;;;4.71;72.16
34712;BME280;20941;42.408;25.634;2023-02-02T07:19:09;99587.38;;;4.91;69.71
34712;BME280;20941;42.408;25.634;2023-02-02T07:21:34;99588.53;;;5.01;70.26
34712;BME280;20941;42.408;25.634;2023-02-02T07:24:04;99555.03;;;4.90;71.95
34712;BME280;20941;42.408;25.634;2023-02-02T07:26:30;99575.22;;;5.18;72.83
34712;BME280;20941;42.408;25.634;2023-02-02T07:28:56;99577.19;;;5.33;73.64
34712;BME280;20941;42.408;25.634;2023-02-02T07:32:29;99576.38;;;5.38;75.73
34712;BME280;20941;42.408;25.634;2023-02-02T07:34:54;99560.75;;;5.42;75.60
34712;BME280;20941;42.408;25.634;2023-02-02T07:37:20;99566.66;;;5.61;75.58
34712;BME280;20941;42.408;25.634;2023-02-02T07:39:45;99546.28;;;5.60;74.79
34712;BME280;20941;42.408;25.634;2023-02-02T07:42:11;99564.13;;;5.90;72.84
34712;BME280;20941;42.408;25.634;2023-02-02T07:44:37;99573.34;;;6.12;70.83
34712;BME280;20941;42.408;25.634;2023-02-02T07:47:03;99555.75;;;6.32;60.10
34712;BME280;20941;42.408;25.634;2023-02-02T07:49:29;99556.75;;;6.67;56.28
34712;BME280;20941;42.408;25.634;2023-02-02T07:51:54;99563.63;;;6.95;53.92
34712;BME280;20941;42.408;25.634;2023-02-02T07:54:20;99565.31;;;7.46;50.33
34712;BME280;20941;42.408;25.634;2023-02-02T07:56:46;99561.78;;;7.70;50.27
34712;BME280;20941;42.408;25.634;2023-02-02T07:59:11;99551.31;;;7.81;50.81
34712;BME280;20941;42.408;25.634;2023-02-02T08:01:37;99543.81;;;8.11;48.19
34712;BME280;20941;42.408;25.634;2023-02-02T08:04:03;99535.47;;;8.30;46.79
34712;BME280;20941;42.408;25.634;2023-02-02T08:06:33;99547.16;;;8.37;46.91
34712;BME280;20941;42.408;25.634;2023-02-02T08:09:00;99566.53;;;8.63;48.17
34712;BME280;20941;42.408;25.634;2023-02-02T08:11:27;99540.81;;;8.56;48.87
34712;BME280;20941;42.408;25.634;2023-02-02T08:13:55;99553.84;;;8.46;49.46
34712;BME280;20941;42.408;25.634;2023-02-02T08:16:22;99546.19;;;8.52;49.06
34712;BME280;20941;42.408;25.634;2023-02-02T08:18:48;99564.47;;;8.74;48.95
34712;BME280;20941;42.408;25.634;2023-02-02T08:21:15;99553.56;;;8.72;49.53
34712;BME280;20941;42.408;25.634;2023-02-02T08:23:41;99545.13;;;8.72;48.93
34712;BME280;20941;42.408;25.634;2023-02-02T08:26:12;99548.75;;;8.73;49.74
34712;BME280;20941;42.408;25.634;2023-02-02T08:28:39;99553.22;;;8.49;49.29
34712;BME280;20941;42.408;25.634;2023-02-02T08:31:27;99562.31;;;8.65;48.51
34712;BME280;20941;42.408;25.634;2023-02-02T08:33:51;99570.94;;;8.69;48.72
34712;BME280;20941;42.408;25.634;2023-02-02T08:36:20;99572.81;;;8.55;49.64
34712;BME280;20941;42.408;25.634;2023-02-02T08:38:46;99570.94;;;8.69;49.89
34712;BME280;20941;42.408;25.634;2023-02-02T08:41:17;99579.78;;;8.81;49.81
34712;BME280;20941;42.408;25.634;2023-02-02T08:43:44;99576.94;;;8.62;48.88
34712;BME280;20941;42.408;25.634;2023-02-02T08:46:11;99570.22;;;8.82;49.33
34712;BME280;20941;42.408;25.634;2023-02-02T08:48:37;99550.13;;;8.75;50.05
34712;BME280;20941;42.408;25.634;2023-02-02T08:51:03;99565.72;;;8.62;49.20
34712;BME280;20941;42.408;25.634;2023-02-02T08:53:30;99584.81;;;8.85;49.73
34712;BME280;20941;42.408;25.634;2023-02-02T08:56:03;99591.38;;;8.99;49.87
34712;BME280;20941;42.408;25.634;2023-02-02T08:58:31;99583.94;;;8.84;49.41
34712;BME280;20941;42.408;25.634;2023-02-02T09:01:16;99594.59;;;8.87;49.64
34712;BME280;20941;42.408;25.634;2023-02-02T09:03:42;99577.38;;;8.94;49.43
34712;BME280;20941;42.408;25.634;2023-02-02T09:06:16;99579.59;;;8.97;49.68
34712;BME280;20941;42.408;25.634;2023-02-02T09:08:42;99582.25;;;9.07;49.25
34712;BME280;20941;42.408;25.634;2023-02-02T09:11:13;99558.84;;;9.17;49.36
34712;BME280;20941;42.408;25.634;2023-02-02T09:13:44;99566.72;;;9.39;47.99
34712;BME280;20941;42.408;25.634;2023-02-02T09:16:12;99540.28;;;9.40;48.23
34712;BME280;20941;42.408;25.634;2023-02-02T09:18:42;99551.13;;;9.66;46.50
34712;BME280;20941;42.408;25.634;2023-02-02T09:21:13;99541.28;;;9.69;47.03
34712;BME280;20941;42.408;25.634;2023-02-02T09:23:40;99560.63;;;9.70;45.76
34712;BME280;20941;42.408;25.634;2023-02-02T09:26:18;99552.03;;;9.80;45.44
34712;BME280;20941;42.408;25.634;2023-02-02T09:28:49;99542.78;;;9.80;45.93
34712;BME280;20941;42.408;25.634;2023-02-02T09:31:16;99535.72;;;9.83;43.41
34712;BME280;20941;42.408;25.634;2023-02-02T09:33:42;99528.22;;;9.92;42.43
34712;BME280;20941;42.408;25.634;2023-02-02T09:36:11;99530.78;;;10.07;42.28
34712;BME280;20941;42.408;25.634;2023-02-02T09:38:38;99519.91;;;9.87;41.45
34712;BME280;20941;42.408;25.634;2023-02-02T09:41:26;99530.97;;;9.97;40.93
34712;BME280;20941;42.408;25.634;2023-02-02T09:44:17;99521.13;;;9.80;40.67
34712;BME280;20941;42.408;25.634;2023-02-02T09:49:22;99496.97;;;10.12;40.16
34712;BME280;20941;42.408;25.634;2023-02-02T09:51:53;99496.03;;;10.17;38.88
34712;BME280;20941;42.408;25.634;2023-02-02T09:54:58;99500.09;;;10.25;39.54
34712;BME280;20941;42.408;25.634;2023-02-02T09:57:28;99498.50;;;10.38;38.55
34712;BME280;20941;42.408;25.634;2023-02-02T09:59:55;99483.41;;;10.48;38.62
34712;BME280;20941;42.408;25.634;2023-02-02T10:02:32;99486.53;;;10.60;38.06
34712;BME280;20941;42.408;25.634;2023-02-02T10:05:12;99490.91;;;10.66;37.56
34712;BME280;20941;42.408;25.634;2023-02-02T10:07:45;99480.66;;;10.70;37.66
34712;BME280;20941;42.408;25.634;2023-02-02T10:10:26;99459.75;;;10.63;37.72
34712;BME280;20941;42.408;25.634;2023-02-02T10:12:58;99447.34;;;10.64;37.28
34712;BME280;20941;42.408;25.634;2023-02-02T10:15:43;99454.41;;;10.75;38.62
34712;BME280;20941;42.408;25.634;2023-02-02T10:18:25;99479.47;;;11.13;40.49
34712;BME280;20941;42.408;25.634;2023-02-02T10:20:59;99478.22;;;11.05;41.09
34712;BME280;20941;42.408;25.634;2023-02-02T10:26:04;99473.22;;;11.39;39.05
34712;BME280;20941;42.408;25.634;2023-02-02T10:34:09;99470.72;;;11.37;39.73
34712;BME280;20941;42.408;25.634;2023-02-02T10:40:29;99457.69;;;11.64;39.51
34712;BME280;20941;42.408;25.634;2023-02-02T10:45:41;99449.63;;;11.49;41.36
34712;BME280;20941;42.408;25.634;2023-02-02T10:48:16;99452.19;;;11.36;42.83
34712;BME280;20941;42.408;25.634;2023-02-02T10:50:47;99442.69;;;11.55;43.20
34712;BME280;20941;42.408;25.634;2023-02-02T10:53:15;99455.41;;;11.66;42.91
34712;BME280;20941;42.408;25.634;2023-02-02T10:55:48;99460.69;;;11.68;43.11
34712;BME280;20941;42.408;25.634;2023-02-02T11:01:07;99437.41;;;12.08;44.19
34712;BME280;20941;42.408;25.634;2023-02-02T11:03:37;99421.34;;;12.08;44.23
34712;BME280;20941;42.408;25.634;2023-02-02T11:06:05;99400.34;;;12.23;44.49
34712;BME280;20941;42.408;25.634;2023-02-02T11:08:53;99425.69;;;12.63;42.19
34712;BME280;20941;42.408;25.634;2023-02-02T11:11:28;99413.91;;;12.70;42.67
34712;BME280;20941;42.408;25.634;2023-02-02T11:19:00;99408.31;;;11.90;44.11
34712;BME280;20941;42.408;25.634;2023-02-02T11:21:31;99381.13;;;11.94;36.00
34712;BME280;20941;42.408;25.634;2023-02-02T11:31:54;99370.41;;;12.45;38.94
34712;BME280;20941;42.408;25.634;2023-02-02T11:34:25;99386.19;;;12.55;37.71
34712;BME280;20941;42.408;25.634;2023-02-02T11:39:25;99368.94;;;12.56;36.88
34712;BME280;20941;42.408;25.634;2023-02-02T11:42:16;99367.88;;;12.43;37.33
34712;BME280;20941;42.408;25.634;2023-02-02T11:44:48;99366.19;;;12.33;34.88
34712;BME280;20941;42.408;25.634;2023-02-02T11:47:33;99359.09;;;12.36;31.80
34712;BME280;20941;42.408;25.634;2023-02-02T11:50:00;99355.28;;;12.41;32.25
34712;BME280;20941;42.408;25.634;2023-02-02T11:52:28;99345.16;;;12.40;34.49
34712;BME280;20941;42.408;25.634;2023-02-02T11:54:57;99343.16;;;12.31;37.29
34712;BME280;20941;42.408;25.634;2023-02-02T11:57:25;99350.03;;;12.08;38.88
34712;BME280;20941;42.408;25.634;2023-02-02T12:00:24;99347.44;;;11.80;40.29
34712;BME280;20941;42.408;25.634;2023-02-02T12:02:51;99342.16;;;11.55;40.43
34712;BME280;20941;42.408;25.634;2023-02-02T12:07:46;99324.47;;;12.04;40.38
34712;BME280;20941;42.408;25.634;2023-02-02T12:10:19;99333.72;;;11.96;39.23
34712;BME280;20941;42.408;25.634;2023-02-02T12:21:33;99323.88;;;12.16;39.51
34712;BME280;20941;42.408;25.634;2023-02-02T12:24:18;99323.16;;;12.01;40.77
34712;BME280;20941;42.408;25.634;2023-02-02T12:27:10;99321.91;;;11.85;40.66
34712;BME280;20941;42.408;25.634;2023-02-02T12:30:06;99321.38;;;12.06;40.95
34712;BME280;20941;42.408;25.634;2023-02-02T12:33:12;99284.03;;;12.00;40.92
34712;BME280;20941;42.408;25.634;2023-02-02T12:49:46;99274.97;;;12.29;40.04
34712;BME280;20941;42.408;25.634;2023-02-02T12:55:24;99305.00;;;12.34;38.67
34712;BME280;20941;42.408;25.634;2023-02-02T13:00:34;99303.69;;;12.49;38.09
34712;BME280;20941;42.408;25.634;2023-02-02T13:06:08;99288.44;;;12.41;38.13
34712;BME280;20941;42.408;25.634;2023-02-02T13:09:06;99304.22;;;12.60;37.89
34712;BME280;20941;42.408;25.634;2023-02-02T13:14:15;99272.16;;;12.29;38.22
34712;BME280;20941;42.408;25.634;2023-02-02T13:16:44;99274.47;;;12.27;35.55
34712;BME280;20941;42.408;25.634;2023-02-02T13:19:46;99287.91;;;12.30;37.08
34712;BME280;20941;42.408;25.634;2023-02-02T13:22:21;99281.75;;;12.19;37.66
34712;BME280;20941;42.408;25.634;2023-02-02T13:24:51;99272.31;;;12.24;38.52
34712;BME280;20941;42.408;25.634;2023-02-02T13:27:20;99275.94;;;12.16;39.06
34712;BME280;20941;42.408;25.634;2023-02-02T13:29:51;99287.69;;;12.00;39.41
34712;BME280;20941;42.408;25.634;2023-02-02T13:32:20;99300.94;;;12.00;40.39
34712;BME280;20941;42.408;25.634;2023-02-02T13:35:05;99278.13;;;12.19;40.46
34712;BME280;20941;42.408;25.634;2023-02-02T13:37:54;99284.09;;;12.26;40.03
34712;BME280;20941;42.408;25.634;2023-02-02T13:40:34;99288.38;;;12.15;40.11
34712;BME280;20941;42.408;25.634;2023-02-02T14:01:30;99268.38;;;11.45;41.78
34712;BME280;20941;42.408;25.634;2023-02-02T14:03:57;99265.16;;;11.29;41.59
34712;BME280;20941;42.408;25.634;2023-02-02T14:06:26;99267.00;;;11.33;41.08
34712;BME280;20941;42.408;25.634;2023-02-02T14:09:03;99269.38;;;11.49;41.58
34712;BME280;20941;42.408;25.634;2023-02-02T14:11:36;99250.75;;;11.30;41.34
34712;BME280;20941;42.408;25.634;2023-02-02T14:14:20;99248.81;;;11.39;40.78
34712;BME280;20941;42.408;25.634;2023-02-02T14:19:56;99265.41;;;11.50;38.32
34712;BME280;20941;42.408;25.634;2023-02-02T14:22:42;99280.75;;;11.66;36.40
34712;BME280;20941;42.408;25.634;2023-02-02T14:28:11;99258.41;;;11.38;36.52
34712;BME280;20941;42.408;25.634;2023-02-02T14:30:38;99258.31;;;11.52;36.06
34712;BME280;20941;42.408;25.634;2023-02-02T14:41:17;99255.63;;;11.16;36.39
34712;BME280;20941;42.408;25.634;2023-02-02T14:44:05;99294.78;;;11.26;36.89
34712;BME280;20941;42.408;25.634;2023-02-02T14:46:33;99308.00;;;11.26;37.61
34712;BME280;20941;42.408;25.634;2023-02-02T14:51:27;99329.97;;;10.92;39.65
34712;BME280;20941;42.408;25.634;2023-02-02T14:53:58;99358.88;;;10.47;43.03
34712;BME280;20941;42.408;25.634;2023-02-02T14:56:38;99390.59;;;10.34;45.56
34712;BME280;20941;42.408;25.634;2023-02-02T14:59:04;99389.44;;;9.93;47.52
34712;BME280;20941;42.408;25.634;2023-02-02T15:01:33;99392.56;;;9.77;48.83
34712;BME280;20941;42.408;25.634;2023-02-02T15:06:44;99439.56;;;8.81;53.89
34712;BME280;20941;42.408;25.634;2023-02-02T15:14:37;99471.91;;;6.97;71.60
34712;BME280;20941;42.408;25.634;2023-02-02T15:19:42;99444.91;;;6.12;81.81
34712;BME280;20941;42.408;25.634;2023-02-02T15:27:55;99476.22;;;5.77;89.00
34712;BME280;20941;42.408;25.634;2023-02-02T15:30:23;99466.44;;;5.75;90.52
34712;BME280;20941;42.408;25.634;2023-02-02T15:32:49;99445.50;;;5.77;87.63
34712;BME280;20941;42.408;25.634;2023-02-02T15:35:22;99436.59;;;5.75;85.46